Meteo Giornale » Osservazioni meteo Repubblica Ceca » Brno-Turany

ore: 13:00 - Osservazioni Meteo Brno-Turany
Lat. 49° 9' N Lon. 16° 42' E Alt. 241 metri s.l.m.

sereno Europe/Prague

15 °C

Sereno

Temp. 24 Ore

8 °C

17 °C

Nord/Nord-Est

14.8 Km/h

Dew point 4 °C

Umidità 47 %

Visibilità  10 Km

Il sole sorge alle ore 04:51

Il sole tramonta alle ore 20:50

Data e Ora Cielo e Fenomeni T °C DP °C Um. % Pres. hPa Vis. km Vento km/h
Oggi h: 13:00 sereno Sereno 15 4 47 1019 10 N/NE 14.8
Oggi h: 12:30 sereno Sereno 16 3 41 1019 10 N 13
Oggi h: 12:00 sereno Sereno 16 3 41 1019 10 E/NE 13
Oggi h: 11:00 sereno Sereno 16 0 33 1019 10 N/NE 13
Oggi h: 10:30 sereno Sereno 15 1 38 1019 10 N/NE 20.3
Oggi h: 10:00 sereno Sereno 14 -0 38 1019 10 N 20.3
Oggi h: 09:30 sereno Sereno 14 0 38 1019 10 N 16.7
Oggi h: 09:00 poco_nuvoloso Poco Nuvoloso 13 1 43 1020 10 N 22.2
Oggi h: 08:30 sereno Sereno 13 1 43 1019 10 N/NO 20.3
Oggi h: 08:00 sereno Sereno 13 3 50 1020 10 N/NO 14.8
Oggi h: 07:00 sereno Sereno 11 3 57 1020 10 N/NO 11.1
Oggi h: 06:30 sereno Sereno 11 3 57 1020 10 N 9.3
Oggi h: 06:00 sereno Sereno 11 3 57 1020 10 N 7.4
Oggi h: 05:30 sereno Sereno 11 3 57 1020 10 N 5.5
Oggi h: 05:00 sereno Sereno 11 3 57 1020 10 N 3.7
Oggi h: 04:30 sereno Sereno 11 3 57 1020 10 N/NO 9.3
Oggi h: 04:00 sereno Sereno 11 3 57 1021 10 N 11.1
Oggi h: 03:30 sereno Sereno 11 3 57 1021 10 N/NO 13
Oggi h: 03:00 sereno Sereno 10 4 66 1021 10 N 13
Oggi h: 02:30 sereno Sereno 10 4 66 1021 10 N/NO 9.3
Oggi h: 02:00 sereno Sereno 10 4 66 1021 10 N 5.5
Oggi h: 01:30 sereno Sereno 9 4 70 1022 10 N/NO 11.1
Oggi h: 00:30 sereno Sereno 8 4 75 1022 10 N 13
Oggi h: 00:00 sereno Sereno 11 2 53 1022 10 N 14.8
Ieri h: 23:30 sereno Sereno 11 2 53 1022 10 N 13
Ieri h: 23:00 sereno Sereno 12 2 50 1022 10 N 14.8
Ieri h: 22:30 sereno Sereno 12 2 50 1022 10 N 14.8
Ieri h: 22:00 sereno Sereno 13 2 47 1022 10 N 13
Ieri h: 21:30 sereno Sereno 13 2 47 1022 10 N 11.1
Ieri h: 21:00 sereno Sereno 14 4 50 1022 10 N 9.3
Ieri h: 20:30 sereno Sereno 15 5 51 1022 10 N/NO 9.3
Ieri h: 20:00 sereno Sereno 15 6 54 1022 10 NO 11.1
Ieri h: 19:30 sereno Sereno 15 5 51 1022 10 N/NO 11.1
Ieri h: 19:00 sereno Sereno 16 6 51 1022 10 N/NO 11.1
Ieri h: 18:00 sereno Sereno 15 6 54 1023 10 N/NE 18.5
Ieri h: 17:00 sereno Sereno 15 7 58 1023 10 N 22.2
Ieri h: 16:30 sereno Sereno 15 7 58 1023 10 N 25.9
Ieri h: 16:00 sereno Sereno 16 7 55 1023 10 N 27.8
Ieri h: 15:00 sereno Sereno 16 7 55 1023 10 N 27.8
Ieri h: 14:30 poco_nuvoloso Poco Nuvoloso 17 7 51 1023 10 N/NO 24
Ieri h: 14:00 sereno Sereno 16 7 55 1023 10 N/NO 24